sensor_id;sensor_type;location;lat;lon;timestamp;temperature;humidity
50969;DHT22;36982;51.474;7.228;2024-02-26T00:01:38;5.90;1.00
50969;DHT22;36982;51.474;7.228;2024-02-26T00:04:06;5.80;1.00
50969;DHT22;36982;51.474;7.228;2024-02-26T00:06:39;5.80;1.00
50969;DHT22;36982;51.474;7.228;2024-02-26T00:09:10;5.80;1.00
50969;DHT22;36982;51.474;7.228;2024-02-26T00:11:41;5.80;1.00
50969;DHT22;36982;51.474;7.228;2024-02-26T00:14:13;5.90;1.00
50969;DHT22;36982;51.474;7.228;2024-02-26T00:16:45;5.90;1.00
50969;DHT22;36982;51.474;7.228;2024-02-26T00:19:13;5.90;1.00
50969;DHT22;36982;51.474;7.228;2024-02-26T00:21:47;5.90;1.00
50969;DHT22;36982;51.474;7.228;2024-02-26T00:24:16;5.90;1.00
50969;DHT22;36982;51.474;7.228;2024-02-26T00:26:50;5.80;1.00
50969;DHT22;36982;51.474;7.228;2024-02-26T00:29:25;5.90;1.00
50969;DHT22;36982;51.474;7.228;2024-02-26T00:31:54;5.90;1.00
50969;DHT22;36982;51.474;7.228;2024-02-26T00:34:24;5.90;1.00
50969;DHT22;36982;51.474;7.228;2024-02-26T00:36:58;5.80;1.00
50969;DHT22;36982;51.474;7.228;2024-02-26T00:39:28;5.90;1.00
50969;DHT22;36982;51.474;7.228;2024-02-26T00:42:07;5.90;1.00
50969;DHT22;36982;51.474;7.228;2024-02-26T00:44:38;5.90;1.00
50969;DHT22;36982;51.474;7.228;2024-02-26T00:47:06;5.90;1.00
50969;DHT22;36982;51.474;7.228;2024-02-26T00:49:38;5.90;1.00
50969;DHT22;36982;51.474;7.228;2024-02-26T00:52:13;5.80;1.00
50969;DHT22;36982;51.474;7.228;2024-02-26T00:54:44;5.90;1.00
50969;DHT22;36982;51.474;7.228;2024-02-26T00:57:18;5.90;1.00
50969;DHT22;36982;51.474;7.228;2024-02-26T00:59:52;5.90;1.00
50969;DHT22;36982;51.474;7.228;2024-02-26T01:02:24;5.90;1.00
50969;DHT22;36982;51.474;7.228;2024-02-26T01:04:53;5.90;1.00
50969;DHT22;36982;51.474;7.228;2024-02-26T01:07:28;5.90;1.00
50969;DHT22;36982;51.474;7.228;2024-02-26T01:10:06;5.80;1.00
50969;DHT22;36982;51.474;7.228;2024-02-26T01:12:34;5.80;1.00
50969;DHT22;36982;51.474;7.228;2024-02-26T01:15:03;5.70;1.00
50969;DHT22;36982;51.474;7.228;2024-02-26T01:17:35;5.70;1.60
50969;DHT22;36982;51.474;7.228;2024-02-26T01:20:03;5.80;1.30
50969;DHT22;36982;51.474;7.228;2024-02-26T01:22:31;5.80;1.00
50969;DHT22;36982;51.474;7.228;2024-02-26T01:25:02;5.70;1.00
50969;DHT22;36982;51.474;7.228;2024-02-26T01:27:31;5.70;1.00
50969;DHT22;36982;51.474;7.228;2024-02-26T01:30:02;5.70;2.60
50969;DHT22;36982;51.474;7.228;2024-02-26T01:32:33;5.70;3.40
50969;DHT22;36982;51.474;7.228;2024-02-26T01:35:05;5.70;4.50
50969;DHT22;36982;51.474;7.228;2024-02-26T01:37:38;5.70;7.80
50969;DHT22;36982;51.474;7.228;2024-02-26T01:40:07;5.70;7.00
50969;DHT22;36982;51.474;7.228;2024-02-26T01:42:33;5.60;8.50
50969;DHT22;36982;51.474;7.228;2024-02-26T01:45:07;5.60;10.90
50969;DHT22;36982;51.474;7.228;2024-02-26T01:47:37;5.60;10.50
50969;DHT22;36982;51.474;7.228;2024-02-26T01:50:08;5.60;11.70
50969;DHT22;36982;51.474;7.228;2024-02-26T01:52:40;5.50;14.60
50969;DHT22;36982;51.474;7.228;2024-02-26T01:55:08;5.50;16.20
50969;DHT22;36982;51.474;7.228;2024-02-26T01:57:40;5.50;16.90
50969;DHT22;36982;51.474;7.228;2024-02-26T02:00:09;5.50;14.80
50969;DHT22;36982;51.474;7.228;2024-02-26T02:02:43;5.40;15.70
50969;DHT22;36982;51.474;7.228;2024-02-26T02:05:23;5.50;13.90
50969;DHT22;36982;51.474;7.228;2024-02-26T02:07:57;5.50;14.70
50969;DHT22;36982;51.474;7.228;2024-02-26T02:10:26;5.50;11.40
50969;DHT22;36982;51.474;7.228;2024-02-26T02:12:53;5.50;10.60
50969;DHT22;36982;51.474;7.228;2024-02-26T02:15:21;5.50;9.60
50969;DHT22;36982;51.474;7.228;2024-02-26T02:17:50;5.60;8.70
50969;DHT22;36982;51.474;7.228;2024-02-26T02:20:42;5.60;8.10
50969;DHT22;36982;51.474;7.228;2024-02-26T02:23:16;5.60;5.20
50969;DHT22;36982;51.474;7.228;2024-02-26T02:25:52;5.60;8.20
50969;DHT22;36982;51.474;7.228;2024-02-26T02:28:23;5.70;3.80
50969;DHT22;36982;51.474;7.228;2024-02-26T02:30:54;5.70;1.00
50969;DHT22;36982;51.474;7.228;2024-02-26T02:33:23;5.70;1.10
50969;DHT22;36982;51.474;7.228;2024-02-26T02:35:55;5.70;1.80
50969;DHT22;36982;51.474;7.228;2024-02-26T02:38:26;5.70;1.00
50969;DHT22;36982;51.474;7.228;2024-02-26T02:40:53;5.70;1.00
50969;DHT22;36982;51.474;7.228;2024-02-26T02:43:29;5.70;1.00
50969;DHT22;36982;51.474;7.228;2024-02-26T02:46:00;5.80;1.00
50969;DHT22;36982;51.474;7.228;2024-02-26T02:48:33;5.70;1.00
50969;DHT22;36982;51.474;7.228;2024-02-26T02:51:05;5.80;1.00
50969;DHT22;36982;51.474;7.228;2024-02-26T02:53:44;5.80;1.00
50969;DHT22;36982;51.474;7.228;2024-02-26T02:56:12;5.70;1.00
50969;DHT22;36982;51.474;7.228;2024-02-26T02:58:43;5.80;1.00
50969;DHT22;36982;51.474;7.228;2024-02-26T03:01:20;5.80;1.00
50969;DHT22;36982;51.474;7.228;2024-02-26T03:03:48;5.80;1.00
50969;DHT22;36982;51.474;7.228;2024-02-26T03:06:21;5.80;1.00
50969;DHT22;36982;51.474;7.228;2024-02-26T03:08:55;5.90;1.00
50969;DHT22;36982;51.474;7.228;2024-02-26T03:11:31;5.80;1.00
50969;DHT22;36982;51.474;7.228;2024-02-26T03:14:12;5.80;1.00
50969;DHT22;36982;51.474;7.228;2024-02-26T03:16:41;5.80;1.00
50969;DHT22;36982;51.474;7.228;2024-02-26T03:19:09;5.80;1.00
50969;DHT22;36982;51.474;7.228;2024-02-26T03:21:38;5.80;1.00
50969;DHT22;36982;51.474;7.228;2024-02-26T03:24:15;5.70;1.00
50969;DHT22;36982;51.474;7.228;2024-02-26T03:26:49;5.70;1.00
50969;DHT22;36982;51.474;7.228;2024-02-26T03:29:23;5.70;1.00
50969;DHT22;36982;51.474;7.228;2024-02-26T03:31:54;5.80;1.00
50969;DHT22;36982;51.474;7.228;2024-02-26T03:34:28;5.70;7.80
50969;DHT22;36982;51.474;7.228;2024-02-26T03:37:02;5.70;6.90
50969;DHT22;36982;51.474;7.228;2024-02-26T03:39:38;5.60;17.90
50969;DHT22;36982;51.474;7.228;2024-02-26T03:42:07;5.50;28.00
50969;DHT22;36982;51.474;7.228;2024-02-26T03:44:40;5.50;39.30
50969;DHT22;36982;51.474;7.228;2024-02-26T03:47:09;5.40;53.30
50969;DHT22;36982;51.474;7.228;2024-02-26T03:49:37;5.30;60.30
50969;DHT22;36982;51.474;7.228;2024-02-26T03:52:06;5.20;66.00
50969;DHT22;36982;51.474;7.228;2024-02-26T03:54:40;5.20;69.40
50969;DHT22;36982;51.474;7.228;2024-02-26T03:57:10;5.20;70.00
50969;DHT22;36982;51.474;7.228;2024-02-26T03:59:44;5.10;77.90
50969;DHT22;36982;51.474;7.228;2024-02-26T04:02:14;5.10;81.20
50969;DHT22;36982;51.474;7.228;2024-02-26T04:04:53;5.10;81.70
50969;DHT22;36982;51.474;7.228;2024-02-26T04:07:27;5.00;83.90
50969;DHT22;36982;51.474;7.228;2024-02-26T04:09:55;5.00;86.20
50969;DHT22;36982;51.474;7.228;2024-02-26T04:12:25;5.00;86.70
50969;DHT22;36982;51.474;7.228;2024-02-26T04:14:59;5.00;89.20
50969;DHT22;36982;51.474;7.228;2024-02-26T04:17:32;4.90;90.60
50969;DHT22;36982;51.474;7.228;2024-02-26T04:20:03;5.00;91.20
50969;DHT22;36982;51.474;7.228;2024-02-26T04:22:34;4.90;91.30
50969;DHT22;36982;51.474;7.228;2024-02-26T04:25:03;4.90;91.40
50969;DHT22;36982;51.474;7.228;2024-02-26T04:27:40;4.80;92.50
50969;DHT22;36982;51.474;7.228;2024-02-26T04:30:12;4.80;94.10
50969;DHT22;36982;51.474;7.228;2024-02-26T04:32:42;4.90;94.00
50969;DHT22;36982;51.474;7.228;2024-02-26T04:35:08;4.90;92.90
50969;DHT22;36982;51.474;7.228;2024-02-26T04:37:34;4.80;93.30
50969;DHT22;36982;51.474;7.228;2024-02-26T04:40:00;4.80;93.40
50969;DHT22;36982;51.474;7.228;2024-02-26T04:42:26;4.80;95.00
50969;DHT22;36982;51.474;7.228;2024-02-26T04:44:52;4.80;95.20
50969;DHT22;36982;51.474;7.228;2024-02-26T04:47:18;4.80;96.90
50969;DHT22;36982;51.474;7.228;2024-02-26T04:49:43;4.80;95.70
50969;DHT22;36982;51.474;7.228;2024-02-26T04:52:09;4.70;95.30
50969;DHT22;36982;51.474;7.228;2024-02-26T04:54:35;4.70;96.70
50969;DHT22;36982;51.474;7.228;2024-02-26T04:57:00;4.70;96.50
50969;DHT22;36982;51.474;7.228;2024-02-26T04:59:26;4.80;95.70
50969;DHT22;36982;51.474;7.228;2024-02-26T05:01:51;4.70;95.00
50969;DHT22;36982;51.474;7.228;2024-02-26T05:04:18;4.80;96.60
50969;DHT22;36982;51.474;7.228;2024-02-26T05:06:44;4.70;96.30
50969;DHT22;36982;51.474;7.228;2024-02-26T05:09:10;4.70;97.20
50969;DHT22;36982;51.474;7.228;2024-02-26T05:11:35;4.70;97.80
50969;DHT22;36982;51.474;7.228;2024-02-26T05:14:01;4.70;98.30
50969;DHT22;36982;51.474;7.228;2024-02-26T05:16:26;4.80;98.40
50969;DHT22;36982;51.474;7.228;2024-02-26T05:18:53;4.70;98.50
50969;DHT22;36982;51.474;7.228;2024-02-26T05:21:18;4.80;99.90
50969;DHT22;36982;51.474;7.228;2024-02-26T05:23:44;4.80;99.90
50969;DHT22;36982;51.474;7.228;2024-02-26T05:26:10;4.80;99.90
50969;DHT22;36982;51.474;7.228;2024-02-26T05:28:36;4.70;99.90
50969;DHT22;36982;51.474;7.228;2024-02-26T05:31:05;4.80;99.90
50969;DHT22;36982;51.474;7.228;2024-02-26T05:33:30;4.70;99.90
50969;DHT22;36982;51.474;7.228;2024-02-26T05:35:56;4.80;99.90
50969;DHT22;36982;51.474;7.228;2024-02-26T05:38:22;4.70;99.90
50969;DHT22;36982;51.474;7.228;2024-02-26T05:40:47;4.70;99.90
50969;DHT22;36982;51.474;7.228;2024-02-26T05:43:13;4.70;99.90
50969;DHT22;36982;51.474;7.228;2024-02-26T05:45:41;4.90;99.90
50969;DHT22;36982;51.474;7.228;2024-02-26T05:48:06;4.60;99.90
50969;DHT22;36982;51.474;7.228;2024-02-26T05:50:32;4.70;99.90
50969;DHT22;36982;51.474;7.228;2024-02-26T05:52:58;4.70;99.90
50969;DHT22;36982;51.474;7.228;2024-02-26T05:55:23;4.70;99.90
50969;DHT22;36982;51.474;7.228;2024-02-26T05:57:49;4.70;99.90
50969;DHT22;36982;51.474;7.228;2024-02-26T06:00:15;4.70;99.90
50969;DHT22;36982;51.474;7.228;2024-02-26T06:02:40;4.70;99.90
50969;DHT22;36982;51.474;7.228;2024-02-26T06:05:06;4.60;99.90
50969;DHT22;36982;51.474;7.228;2024-02-26T06:07:34;4.60;99.90
50969;DHT22;36982;51.474;7.228;2024-02-26T06:10:00;4.60;99.90
50969;DHT22;36982;51.474;7.228;2024-02-26T06:12:26;4.60;99.90
50969;DHT22;36982;51.474;7.228;2024-02-26T06:14:54;4.60;99.90
50969;DHT22;36982;51.474;7.228;2024-02-26T06:17:19;4.60;99.90
50969;DHT22;36982;51.474;7.228;2024-02-26T06:19:45;4.60;99.90
50969;DHT22;36982;51.474;7.228;2024-02-26T06:22:10;4.60;99.90
50969;DHT22;36982;51.474;7.228;2024-02-26T06:24:36;4.60;99.90
50969;DHT22;36982;51.474;7.228;2024-02-26T06:27:02;4.60;99.90
50969;DHT22;36982;51.474;7.228;2024-02-26T06:29:28;4.60;99.90
50969;DHT22;36982;51.474;7.228;2024-02-26T06:31:53;4.70;99.90
50969;DHT22;36982;51.474;7.228;2024-02-26T06:34:19;4.70;99.90
50969;DHT22;36982;51.474;7.228;2024-02-26T06:36:44;4.60;99.90
50969;DHT22;36982;51.474;7.228;2024-02-26T06:39:10;4.70;99.90
50969;DHT22;36982;51.474;7.228;2024-02-26T06:41:36;4.70;99.90
50969;DHT22;36982;51.474;7.228;2024-02-26T06:44:04;4.70;99.90
50969;DHT22;36982;51.474;7.228;2024-02-26T06:46:29;4.70;99.90
50969;DHT22;36982;51.474;7.228;2024-02-26T06:48:56;4.70;99.90
50969;DHT22;36982;51.474;7.228;2024-02-26T06:51:22;4.60;99.90
50969;DHT22;36982;51.474;7.228;2024-02-26T06:53:48;4.70;99.90
50969;DHT22;36982;51.474;7.228;2024-02-26T06:56:14;4.70;99.90
50969;DHT22;36982;51.474;7.228;2024-02-26T06:58:39;4.70;99.90
50969;DHT22;36982;51.474;7.228;2024-02-26T07:01:05;4.70;99.90
50969;DHT22;36982;51.474;7.228;2024-02-26T07:03:30;4.80;99.90
50969;DHT22;36982;51.474;7.228;2024-02-26T07:05:56;4.70;99.90
50969;DHT22;36982;51.474;7.228;2024-02-26T07:08:22;4.70;99.90
50969;DHT22;36982;51.474;7.228;2024-02-26T07:10:47;4.70;99.90
50969;DHT22;36982;51.474;7.228;2024-02-26T07:13:13;4.70;99.90
50969;DHT22;36982;51.474;7.228;2024-02-26T07:15:39;4.70;99.90
50969;DHT22;36982;51.474;7.228;2024-02-26T07:18:04;4.70;99.90
50969;DHT22;36982;51.474;7.228;2024-02-26T07:20:30;4.70;99.90
50969;DHT22;36982;51.474;7.228;2024-02-26T07:22:56;4.70;99.90
50969;DHT22;36982;51.474;7.228;2024-02-26T07:25:22;4.70;99.90
50969;DHT22;36982;51.474;7.228;2024-02-26T07:27:47;4.80;99.90
50969;DHT22;36982;51.474;7.228;2024-02-26T07:30:13;4.80;99.90
50969;DHT22;36982;51.474;7.228;2024-02-26T07:32:39;4.80;99.90
50969;DHT22;36982;51.474;7.228;2024-02-26T07:35:05;4.80;99.90
50969;DHT22;36982;51.474;7.228;2024-02-26T07:37:30;4.80;99.90
50969;DHT22;36982;51.474;7.228;2024-02-26T07:39:56;4.80;99.90
50969;DHT22;36982;51.474;7.228;2024-02-26T07:42:22;4.80;99.90
50969;DHT22;36982;51.474;7.228;2024-02-26T07:44:47;4.90;99.90
50969;DHT22;36982;51.474;7.228;2024-02-26T07:47:13;4.90;99.90
50969;DHT22;36982;51.474;7.228;2024-02-26T07:49:39;4.90;99.90
50969;DHT22;36982;51.474;7.228;2024-02-26T07:52:05;4.80;99.90
50969;DHT22;36982;51.474;7.228;2024-02-26T07:54:31;5.00;99.90
50969;DHT22;36982;51.474;7.228;2024-02-26T07:56:56;4.90;99.90
50969;DHT22;36982;51.474;7.228;2024-02-26T07:59:22;4.90;99.90
50969;DHT22;36982;51.474;7.228;2024-02-26T08:01:51;4.90;99.90
50969;DHT22;36982;51.474;7.228;2024-02-26T08:04:17;4.90;99.90
50969;DHT22;36982;51.474;7.228;2024-02-26T08:06:42;4.90;99.90
50969;DHT22;36982;51.474;7.228;2024-02-26T08:09:08;4.90;99.90
50969;DHT22;36982;51.474;7.228;2024-02-26T08:11:34;5.00;99.90
50969;DHT22;36982;51.474;7.228;2024-02-26T08:14:00;4.90;99.90
50969;DHT22;36982;51.474;7.228;2024-02-26T08:16:26;5.00;99.90
50969;DHT22;36982;51.474;7.228;2024-02-26T08:18:51;5.00;99.90
50969;DHT22;36982;51.474;7.228;2024-02-26T08:21:17;5.00;99.90
50969;DHT22;36982;51.474;7.228;2024-02-26T08:23:46;5.00;99.90
50969;DHT22;36982;51.474;7.228;2024-02-26T08:26:11;5.10;99.90
50969;DHT22;36982;51.474;7.228;2024-02-26T08:28:38;5.10;99.90
50969;DHT22;36982;51.474;7.228;2024-02-26T08:31:03;5.00;99.90
50969;DHT22;36982;51.474;7.228;2024-02-26T08:33:29;5.10;99.90
50969;DHT22;36982;51.474;7.228;2024-02-26T08:35:56;5.10;99.90
50969;DHT22;36982;51.474;7.228;2024-02-26T08:38:21;5.10;99.90
50969;DHT22;36982;51.474;7.228;2024-02-26T08:40:48;5.10;99.90
50969;DHT22;36982;51.474;7.228;2024-02-26T08:43:13;5.10;99.90
50969;DHT22;36982;51.474;7.228;2024-02-26T08:45:39;5.10;99.90
50969;DHT22;36982;51.474;7.228;2024-02-26T08:48:04;5.10;99.90
50969;DHT22;36982;51.474;7.228;2024-02-26T08:50:30;5.10;99.90
50969;DHT22;36982;51.474;7.228;2024-02-26T08:52:56;5.10;99.90
50969;DHT22;36982;51.474;7.228;2024-02-26T08:55:21;5.10;99.90
50969;DHT22;36982;51.474;7.228;2024-02-26T08:57:47;5.20;99.90
50969;DHT22;36982;51.474;7.228;2024-02-26T09:00:13;5.20;99.90
50969;DHT22;36982;51.474;7.228;2024-02-26T09:02:41;5.20;99.90
50969;DHT22;36982;51.474;7.228;2024-02-26T09:05:09;5.20;99.90
50969;DHT22;36982;51.474;7.228;2024-02-26T09:07:35;5.20;99.90
50969;DHT22;36982;51.474;7.228;2024-02-26T09:10:02;5.30;99.90
50969;DHT22;36982;51.474;7.228;2024-02-26T09:12:27;5.20;99.90
50969;DHT22;36982;51.474;7.228;2024-02-26T09:14:53;5.20;99.90
50969;DHT22;36982;51.474;7.228;2024-02-26T09:17:21;5.20;99.90
50969;DHT22;36982;51.474;7.228;2024-02-26T09:19:46;5.30;99.90
50969;DHT22;36982;51.474;7.228;2024-02-26T09:22:12;5.30;99.90
50969;DHT22;36982;51.474;7.228;2024-02-26T09:24:41;5.30;99.90
50969;DHT22;36982;51.474;7.228;2024-02-26T09:27:07;5.30;99.90
50969;DHT22;36982;51.474;7.228;2024-02-26T09:29:35;5.30;99.90
50969;DHT22;36982;51.474;7.228;2024-02-26T09:32:00;5.30;99.90
50969;DHT22;36982;51.474;7.228;2024-02-26T09:34:26;5.40;99.90
50969;DHT22;36982;51.474;7.228;2024-02-26T09:36:52;5.40;99.90
50969;DHT22;36982;51.474;7.228;2024-02-26T09:39:17;5.50;99.90
50969;DHT22;36982;51.474;7.228;2024-02-26T09:41:47;5.40;99.90
50969;DHT22;36982;51.474;7.228;2024-02-26T09:44:18;5.50;99.90
50969;DHT22;36982;51.474;7.228;2024-02-26T09:46:45;5.50;99.90
50969;DHT22;36982;51.474;7.228;2024-02-26T09:49:12;5.50;99.90
50969;DHT22;36982;51.474;7.228;2024-02-26T09:51:38;5.50;99.90
50969;DHT22;36982;51.474;7.228;2024-02-26T09:54:24;5.60;99.90
50969;DHT22;36982;51.474;7.228;2024-02-26T09:56:53;5.60;99.90
50969;DHT22;36982;51.474;7.228;2024-02-26T09:59:19;5.60;99.90
50969;DHT22;36982;51.474;7.228;2024-02-26T10:01:46;5.60;99.90
50969;DHT22;36982;51.474;7.228;2024-02-26T10:04:12;5.50;99.90
50969;DHT22;36982;51.474;7.228;2024-02-26T10:06:38;5.70;99.90
50969;DHT22;36982;51.474;7.228;2024-02-26T10:09:05;5.70;99.90
50969;DHT22;36982;51.474;7.228;2024-02-26T10:11:35;5.80;99.90
50969;DHT22;36982;51.474;7.228;2024-02-26T10:14:03;5.80;99.90
50969;DHT22;36982;51.474;7.228;2024-02-26T10:16:28;5.90;99.90
50969;DHT22;36982;51.474;7.228;2024-02-26T10:18:54;5.90;99.90
50969;DHT22;36982;51.474;7.228;2024-02-26T10:21:21;5.90;99.90
50969;DHT22;36982;51.474;7.228;2024-02-26T10:23:47;6.00;99.90
50969;DHT22;36982;51.474;7.228;2024-02-26T10:26:13;6.00;99.90
50969;DHT22;36982;51.474;7.228;2024-02-26T10:28:40;6.00;99.90
50969;DHT22;36982;51.474;7.228;2024-02-26T10:31:06;6.00;99.90
50969;DHT22;36982;51.474;7.228;2024-02-26T10:33:36;6.10;99.90
50969;DHT22;36982;51.474;7.228;2024-02-26T10:36:06;6.10;99.90
50969;DHT22;36982;51.474;7.228;2024-02-26T10:38:35;6.20;99.90
50969;DHT22;36982;51.474;7.228;2024-02-26T10:41:07;6.20;99.90
50969;DHT22;36982;51.474;7.228;2024-02-26T10:43:33;6.30;99.90
50969;DHT22;36982;51.474;7.228;2024-02-26T10:45:59;6.30;99.90
50969;DHT22;36982;51.474;7.228;2024-02-26T10:48:25;6.30;99.90
50969;DHT22;36982;51.474;7.228;2024-02-26T10:50:50;6.50;99.90
50969;DHT22;36982;51.474;7.228;2024-02-26T10:53:17;6.50;99.90
50969;DHT22;36982;51.474;7.228;2024-02-26T10:55:58;6.50;99.90
50969;DHT22;36982;51.474;7.228;2024-02-26T10:58:25;6.50;99.30
50969;DHT22;36982;51.474;7.228;2024-02-26T11:00:51;6.50;99.90
50969;DHT22;36982;51.474;7.228;2024-02-26T11:03:18;6.40;99.60
50969;DHT22;36982;51.474;7.228;2024-02-26T11:05:47;6.50;99.90
50969;DHT22;36982;51.474;7.228;2024-02-26T11:08:14;6.50;99.70
50969;DHT22;36982;51.474;7.228;2024-02-26T11:10:40;6.60;99.90
50969;DHT22;36982;51.474;7.228;2024-02-26T11:13:06;6.60;99.90
50969;DHT22;36982;51.474;7.228;2024-02-26T11:15:35;6.70;99.90
50969;DHT22;36982;51.474;7.228;2024-02-26T11:18:01;6.70;97.10
50969;DHT22;36982;51.474;7.228;2024-02-26T11:20:30;6.70;98.30
50969;DHT22;36982;51.474;7.228;2024-02-26T11:22:57;6.70;97.30
50969;DHT22;36982;51.474;7.228;2024-02-26T11:25:23;6.70;98.70
50969;DHT22;36982;51.474;7.228;2024-02-26T11:27:54;6.80;95.30
50969;DHT22;36982;51.474;7.228;2024-02-26T11:30:25;6.80;95.80
50969;DHT22;36982;51.474;7.228;2024-02-26T11:32:52;6.90;94.70
50969;DHT22;36982;51.474;7.228;2024-02-26T11:35:19;7.00;96.60
50969;DHT22;36982;51.474;7.228;2024-02-26T11:37:55;7.10;95.40
50969;DHT22;36982;51.474;7.228;2024-02-26T11:40:23;7.10;94.30
50969;DHT22;36982;51.474;7.228;2024-02-26T11:42:49;7.20;84.60
50969;DHT22;36982;51.474;7.228;2024-02-26T11:48:10;7.20;74.40
50969;DHT22;36982;51.474;7.228;2024-02-26T11:50:39;7.20;70.90
50969;DHT22;36982;51.474;7.228;2024-02-26T11:53:24;7.20;77.70
50969;DHT22;36982;51.474;7.228;2024-02-26T11:58:42;7.40;73.30
50969;DHT22;36982;51.474;7.228;2024-02-26T12:01:36;7.50;79.20
50969;DHT22;36982;51.474;7.228;2024-02-26T12:04:06;7.50;69.70
50969;DHT22;36982;51.474;7.228;2024-02-26T12:06:41;7.40;67.20
50969;DHT22;36982;51.474;7.228;2024-02-26T12:09:07;7.30;67.70
50969;DHT22;36982;51.474;7.228;2024-02-26T12:11:37;7.20;61.70
50969;DHT22;36982;51.474;7.228;2024-02-26T12:14:03;7.10;70.50
50969;DHT22;36982;51.474;7.228;2024-02-26T12:16:38;7.10;68.00
50969;DHT22;36982;51.474;7.228;2024-02-26T12:19:08;7.10;60.00
50969;DHT22;36982;51.474;7.228;2024-02-26T12:21:35;7.00;58.10
50969;DHT22;36982;51.474;7.228;2024-02-26T12:24:14;6.90;60.20
50969;DHT22;36982;51.474;7.228;2024-02-26T12:26:41;6.90;69.80
50969;DHT22;36982;51.474;7.228;2024-02-26T12:29:07;7.00;68.70
50969;DHT22;36982;51.474;7.228;2024-02-26T12:31:33;7.00;64.00
50969;DHT22;36982;51.474;7.228;2024-02-26T12:34:00;7.00;64.90
50969;DHT22;36982;51.474;7.228;2024-02-26T12:36:26;7.10;59.40
50969;DHT22;36982;51.474;7.228;2024-02-26T12:38:52;7.10;61.40
50969;DHT22;36982;51.474;7.228;2024-02-26T12:41:18;7.10;55.10
50969;DHT22;36982;51.474;7.228;2024-02-26T12:43:44;7.20;54.70
50969;DHT22;36982;51.474;7.228;2024-02-26T12:46:10;7.20;46.00
50969;DHT22;36982;51.474;7.228;2024-02-26T12:48:36;7.20;47.10
50969;DHT22;36982;51.474;7.228;2024-02-26T12:51:03;7.20;45.30
50969;DHT22;36982;51.474;7.228;2024-02-26T12:53:29;7.20;49.40
50969;DHT22;36982;51.474;7.228;2024-02-26T12:55:55;7.20;45.90
50969;DHT22;36982;51.474;7.228;2024-02-26T12:58:21;7.10;49.40
50969;DHT22;36982;51.474;7.228;2024-02-26T13:00:51;7.10;53.20
50969;DHT22;36982;51.474;7.228;2024-02-26T13:03:17;7.10;50.20
50969;DHT22;36982;51.474;7.228;2024-02-26T13:05:44;7.10;47.30
50969;DHT22;36982;51.474;7.228;2024-02-26T13:08:16;7.10;41.60
50969;DHT22;36982;51.474;7.228;2024-02-26T13:10:42;7.20;40.80
50969;DHT22;36982;51.474;7.228;2024-02-26T13:13:08;7.20;34.80
50969;DHT22;36982;51.474;7.228;2024-02-26T13:15:34;7.10;31.70
50969;DHT22;36982;51.474;7.228;2024-02-26T13:18:12;7.10;30.70
50969;DHT22;36982;51.474;7.228;2024-02-26T13:20:38;7.20;34.50
50969;DHT22;36982;51.474;7.228;2024-02-26T13:23:11;7.20;33.30
50969;DHT22;36982;51.474;7.228;2024-02-26T13:25:38;7.20;37.90
50969;DHT22;36982;51.474;7.228;2024-02-26T13:28:16;7.20;22.50
50969;DHT22;36982;51.474;7.228;2024-02-26T13:30:56;7.20;30.70
50969;DHT22;36982;51.474;7.228;2024-02-26T13:33:23;7.30;22.10
50969;DHT22;36982;51.474;7.228;2024-02-26T13:35:50;7.20;27.90
50969;DHT22;36982;51.474;7.228;2024-02-26T13:38:16;7.20;27.40
50969;DHT22;36982;51.474;7.228;2024-02-26T13:40:42;7.20;26.00
50969;DHT22;36982;51.474;7.228;2024-02-26T13:43:08;7.20;24.20
50969;DHT22;36982;51.474;7.228;2024-02-26T13:45:37;7.20;28.30
50969;DHT22;36982;51.474;7.228;2024-02-26T13:48:04;7.30;26.70
50969;DHT22;36982;51.474;7.228;2024-02-26T13:50:30;7.30;24.70
50969;DHT22;36982;51.474;7.228;2024-02-26T13:52:56;7.40;18.70
50969;DHT22;36982;51.474;7.228;2024-02-26T13:55:23;7.30;20.30
50969;DHT22;36982;51.474;7.228;2024-02-26T13:57:52;7.30;19.30
50969;DHT22;36982;51.474;7.228;2024-02-26T14:00:19;7.30;20.50
50969;DHT22;36982;51.474;7.228;2024-02-26T14:02:45;7.30;22.30
50969;DHT22;36982;51.474;7.228;2024-02-26T14:05:11;7.30;19.80
50969;DHT22;36982;51.474;7.228;2024-02-26T14:07:36;7.40;22.20
50969;DHT22;36982;51.474;7.228;2024-02-26T14:10:02;7.40;18.20
50969;DHT22;36982;51.474;7.228;2024-02-26T14:12:28;7.50;21.50
50969;DHT22;36982;51.474;7.228;2024-02-26T14:14:54;7.60;10.20
50969;DHT22;36982;51.474;7.228;2024-02-26T14:17:21;7.50;11.50
50969;DHT22;36982;51.474;7.228;2024-02-26T14:19:47;7.50;16.50
50969;DHT22;36982;51.474;7.228;2024-02-26T14:22:14;7.60;14.30
50969;DHT22;36982;51.474;7.228;2024-02-26T14:24:40;7.60;10.60
50969;DHT22;36982;51.474;7.228;2024-02-26T14:27:10;7.60;14.50
50969;DHT22;36982;51.474;7.228;2024-02-26T14:29:36;7.70;8.60
50969;DHT22;36982;51.474;7.228;2024-02-26T14:32:03;7.60;12.60
50969;DHT22;36982;51.474;7.228;2024-02-26T14:34:29;7.70;11.70
50969;DHT22;36982;51.474;7.228;2024-02-26T14:36:54;7.70;10.00
50969;DHT22;36982;51.474;7.228;2024-02-26T14:39:21;7.90;12.30
50969;DHT22;36982;51.474;7.228;2024-02-26T14:41:46;7.80;10.80
50969;DHT22;36982;51.474;7.228;2024-02-26T14:44:12;7.80;12.30
50969;DHT22;36982;51.474;7.228;2024-02-26T14:46:38;7.70;8.10
50969;DHT22;36982;51.474;7.228;2024-02-26T14:49:03;7.70;13.50
50969;DHT22;36982;51.474;7.228;2024-02-26T14:51:29;7.70;11.10
50969;DHT22;36982;51.474;7.228;2024-02-26T14:53:55;7.70;12.30
50969;DHT22;36982;51.474;7.228;2024-02-26T14:56:20;7.60;19.30
50969;DHT22;36982;51.474;7.228;2024-02-26T14:58:46;7.70;19.10
50969;DHT22;36982;51.474;7.228;2024-02-26T15:01:11;7.70;10.20
50969;DHT22;36982;51.474;7.228;2024-02-26T15:03:37;7.70;7.70
50969;DHT22;36982;51.474;7.228;2024-02-26T15:06:03;7.70;3.70
50969;DHT22;36982;51.474;7.228;2024-02-26T15:08:29;7.70;2.10
50969;DHT22;36982;51.474;7.228;2024-02-26T15:10:54;7.70;2.20
50969;DHT22;36982;51.474;7.228;2024-02-26T15:13:20;7.70;1.00
50969;DHT22;36982;51.474;7.228;2024-02-26T15:15:46;7.70;1.10
50969;DHT22;36982;51.474;7.228;2024-02-26T15:18:11;7.60;1.00
50969;DHT22;36982;51.474;7.228;2024-02-26T15:20:41;7.80;1.00
50969;DHT22;36982;51.474;7.228;2024-02-26T15:23:07;7.70;1.00
50969;DHT22;36982;51.474;7.228;2024-02-26T15:25:33;7.60;1.00
50969;DHT22;36982;51.474;7.228;2024-02-26T15:27:58;7.60;1.00
50969;DHT22;36982;51.474;7.228;2024-02-26T15:30:24;7.60;1.00
50969;DHT22;36982;51.474;7.228;2024-02-26T15:32:50;7.60;1.00
50969;DHT22;36982;51.474;7.228;2024-02-26T15:35:15;7.50;1.00
50969;DHT22;36982;51.474;7.228;2024-02-26T15:37:41;7.50;1.00
50969;DHT22;36982;51.474;7.228;2024-02-26T15:40:07;7.50;1.00
50969;DHT22;36982;51.474;7.228;2024-02-26T15:42:33;7.50;1.00
50969;DHT22;36982;51.474;7.228;2024-02-26T15:44:59;7.50;1.00
50969;DHT22;36982;51.474;7.228;2024-02-26T15:47:24;7.50;1.00
50969;DHT22;36982;51.474;7.228;2024-02-26T15:49:50;7.60;1.00
50969;DHT22;36982;51.474;7.228;2024-02-26T15:52:15;7.70;1.00
50969;DHT22;36982;51.474;7.228;2024-02-26T15:54:41;7.50;1.00
50969;DHT22;36982;51.474;7.228;2024-02-26T15:57:07;7.50;1.00
50969;DHT22;36982;51.474;7.228;2024-02-26T15:59:35;7.50;1.00
50969;DHT22;36982;51.474;7.228;2024-02-26T16:02:00;7.50;1.00